sensor_id;sensor_type;location;lat;lon;timestamp;P1;durP1;ratioP1;P2;durP2;ratioP2
58637;SDS011;54976;51.510;7.522;2023-10-31T00:00:40;4.18;;;2.72;;
58637;SDS011;54976;51.510;7.522;2023-10-31T00:03:40;6.10;;;2.00;;
58637;SDS011;54976;51.510;7.522;2023-10-31T00:06:42;3.08;;;2.38;;
58637;SDS011;54976;51.510;7.522;2023-10-31T00:09:43;3.10;;;1.80;;
58637;SDS011;54976;51.510;7.522;2023-10-31T00:12:44;3.58;;;3.13;;
58637;SDS011;54976;51.510;7.522;2023-10-31T00:15:44;4.40;;;2.78;;
58637;SDS011;54976;51.510;7.522;2023-10-31T00:18:45;3.72;;;2.80;;
58637;SDS011;54976;51.510;7.522;2023-10-31T00:21:45;3.88;;;3.53;;
58637;SDS011;54976;51.510;7.522;2023-10-31T00:24:46;3.53;;;2.40;;
58637;SDS011;54976;51.510;7.522;2023-10-31T00:27:47;6.28;;;3.10;;
58637;SDS011;54976;51.510;7.522;2023-10-31T00:30:47;3.08;;;2.88;;
58637;SDS011;54976;51.510;7.522;2023-10-31T00:33:48;5.20;;;3.42;;
58637;SDS011;54976;51.510;7.522;2023-10-31T00:36:49;5.80;;;3.80;;
58637;SDS011;54976;51.510;7.522;2023-10-31T00:39:49;5.15;;;3.10;;
58637;SDS011;54976;51.510;7.522;2023-10-31T00:42:50;3.88;;;3.58;;
58637;SDS011;54976;51.510;7.522;2023-10-31T00:45:51;4.80;;;4.28;;
58637;SDS011;54976;51.510;7.522;2023-10-31T00:48:51;5.38;;;3.67;;
58637;SDS011;54976;51.510;7.522;2023-10-31T00:51:52;3.67;;;3.38;;
58637;SDS011;54976;51.510;7.522;2023-10-31T00:54:52;4.13;;;3.72;;
58637;SDS011;54976;51.510;7.522;2023-10-31T00:57:53;4.45;;;3.55;;
58637;SDS011;54976;51.510;7.522;2023-10-31T01:00:54;3.38;;;3.08;;
58637;SDS011;54976;51.510;7.522;2023-10-31T01:03:54;4.32;;;2.75;;
58637;SDS011;54976;51.510;7.522;2023-10-31T01:06:55;2.13;;;1.92;;
58637;SDS011;54976;51.510;7.522;2023-10-31T01:09:55;2.88;;;2.65;;
58637;SDS011;54976;51.510;7.522;2023-10-31T01:12:56;3.28;;;2.97;;
58637;SDS011;54976;51.510;7.522;2023-10-31T01:15:56;5.03;;;2.30;;
58637;SDS011;54976;51.510;7.522;2023-10-31T01:18:57;3.72;;;2.80;;
58637;SDS011;54976;51.510;7.522;2023-10-31T01:21:58;2.67;;;1.80;;
58637;SDS011;54976;51.510;7.522;2023-10-31T01:24:59;1.90;;;1.80;;
58637;SDS011;54976;51.510;7.522;2023-10-31T01:27:59;1.27;;;1.20;;
58637;SDS011;54976;51.510;7.522;2023-10-31T01:31:00;1.60;;;1.50;;
58637;SDS011;54976;51.510;7.522;2023-10-31T01:34:00;1.90;;;1.40;;
58637;SDS011;54976;51.510;7.522;2023-10-31T01:37:01;4.43;;;1.70;;
58637;SDS011;54976;51.510;7.522;2023-10-31T01:40:02;1.10;;;1.00;;
58637;SDS011;54976;51.510;7.522;2023-10-31T01:43:03;0.90;;;0.90;;
58637;SDS011;54976;51.510;7.522;2023-10-31T01:46:04;1.02;;;0.98;;
58637;SDS011;54976;51.510;7.522;2023-10-31T01:49:05;2.22;;;1.17;;
58637;SDS011;54976;51.510;7.522;2023-10-31T01:52:06;5.25;;;1.38;;
58637;SDS011;54976;51.510;7.522;2023-10-31T01:55:07;1.88;;;0.98;;
58637;SDS011;54976;51.510;7.522;2023-10-31T01:58:08;1.30;;;1.20;;
58637;SDS011;54976;51.510;7.522;2023-10-31T02:01:09;1.98;;;1.20;;
58637;SDS011;54976;51.510;7.522;2023-10-31T02:04:10;3.45;;;1.42;;
58637;SDS011;54976;51.510;7.522;2023-10-31T02:07:11;1.67;;;1.10;;
58637;SDS011;54976;51.510;7.522;2023-10-31T02:10:11;3.05;;;1.80;;
58637;SDS011;54976;51.510;7.522;2023-10-31T02:13:12;4.03;;;2.15;;
58637;SDS011;54976;51.510;7.522;2023-10-31T02:16:13;3.67;;;2.35;;
58637;SDS011;54976;51.510;7.522;2023-10-31T02:19:15;4.28;;;2.53;;
58637;SDS011;54976;51.510;7.522;2023-10-31T02:22:18;6.97;;;3.10;;
58637;SDS011;54976;51.510;7.522;2023-10-31T02:25:19;5.50;;;2.70;;
58637;SDS011;54976;51.510;7.522;2023-10-31T02:28:20;4.47;;;2.90;;
58637;SDS011;54976;51.510;7.522;2023-10-31T02:31:21;6.35;;;3.45;;
58637;SDS011;54976;51.510;7.522;2023-10-31T02:34:21;5.30;;;2.92;;
58637;SDS011;54976;51.510;7.522;2023-10-31T02:37:22;6.00;;;3.60;;
58637;SDS011;54976;51.510;7.522;2023-10-31T02:40:22;6.50;;;3.45;;
58637;SDS011;54976;51.510;7.522;2023-10-31T02:43:23;7.15;;;3.88;;
58637;SDS011;54976;51.510;7.522;2023-10-31T02:46:23;6.65;;;3.42;;
58637;SDS011;54976;51.510;7.522;2023-10-31T02:49:24;8.80;;;4.32;;
58637;SDS011;54976;51.510;7.522;2023-10-31T02:52:25;5.32;;;3.53;;
58637;SDS011;54976;51.510;7.522;2023-10-31T02:55:25;4.10;;;3.13;;
58637;SDS011;54976;51.510;7.522;2023-10-31T02:58:26;3.40;;;3.10;;
58637;SDS011;54976;51.510;7.522;2023-10-31T03:01:29;3.78;;;3.40;;
58637;SDS011;54976;51.510;7.522;2023-10-31T03:04:30;4.90;;;3.97;;
58637;SDS011;54976;51.510;7.522;2023-10-31T03:07:30;8.23;;;3.85;;
58637;SDS011;54976;51.510;7.522;2023-10-31T03:10:31;4.43;;;3.70;;
58637;SDS011;54976;51.510;7.522;2023-10-31T03:13:32;4.38;;;3.60;;
58637;SDS011;54976;51.510;7.522;2023-10-31T03:16:33;4.70;;;3.42;;
58637;SDS011;54976;51.510;7.522;2023-10-31T03:19:33;3.83;;;3.42;;
58637;SDS011;54976;51.510;7.522;2023-10-31T03:22:34;4.10;;;3.17;;
58637;SDS011;54976;51.510;7.522;2023-10-31T03:25:35;3.58;;;2.90;;
58637;SDS011;54976;51.510;7.522;2023-10-31T03:28:35;6.90;;;3.70;;
58637;SDS011;54976;51.510;7.522;2023-10-31T03:31:36;6.95;;;4.22;;
58637;SDS011;54976;51.510;7.522;2023-10-31T03:34:36;7.88;;;4.60;;
58637;SDS011;54976;51.510;7.522;2023-10-31T03:37:37;9.02;;;5.13;;
58637;SDS011;54976;51.510;7.522;2023-10-31T03:40:41;9.07;;;4.93;;
58637;SDS011;54976;51.510;7.522;2023-10-31T03:43:41;9.60;;;5.15;;
58637;SDS011;54976;51.510;7.522;2023-10-31T03:46:42;9.60;;;6.38;;
58637;SDS011;54976;51.510;7.522;2023-10-31T03:49:43;11.88;;;6.88;;
58637;SDS011;54976;51.510;7.522;2023-10-31T03:52:43;15.75;;;7.43;;
58637;SDS011;54976;51.510;7.522;2023-10-31T03:55:44;15.95;;;7.63;;
58637;SDS011;54976;51.510;7.522;2023-10-31T03:58:45;15.85;;;8.50;;
58637;SDS011;54976;51.510;7.522;2023-10-31T04:01:46;16.67;;;8.32;;
58637;SDS011;54976;51.510;7.522;2023-10-31T04:04:46;15.13;;;8.90;;
58637;SDS011;54976;51.510;7.522;2023-10-31T04:07:47;15.85;;;8.35;;
58637;SDS011;54976;51.510;7.522;2023-10-31T04:10:47;12.18;;;8.57;;
58637;SDS011;54976;51.510;7.522;2023-10-31T04:13:48;16.88;;;9.48;;
58637;SDS011;54976;51.510;7.522;2023-10-31T04:16:48;14.13;;;7.80;;
58637;SDS011;54976;51.510;7.522;2023-10-31T04:19:49;16.48;;;7.88;;
58637;SDS011;54976;51.510;7.522;2023-10-31T04:22:50;16.05;;;7.57;;
58637;SDS011;54976;51.510;7.522;2023-10-31T04:25:50;14.85;;;7.70;;
58637;SDS011;54976;51.510;7.522;2023-10-31T04:28:52;16.67;;;6.72;;
58637;SDS011;54976;51.510;7.522;2023-10-31T04:31:53;13.45;;;6.15;;
58637;SDS011;54976;51.510;7.522;2023-10-31T04:34:53;14.02;;;6.93;;
58637;SDS011;54976;51.510;7.522;2023-10-31T04:37:54;14.45;;;7.55;;
58637;SDS011;54976;51.510;7.522;2023-10-31T04:40:55;14.10;;;7.68;;
58637;SDS011;54976;51.510;7.522;2023-10-31T04:43:55;17.42;;;7.88;;
58637;SDS011;54976;51.510;7.522;2023-10-31T04:46:56;14.70;;;8.32;;
58637;SDS011;54976;51.510;7.522;2023-10-31T04:49:56;15.05;;;8.25;;
58637;SDS011;54976;51.510;7.522;2023-10-31T04:52:57;12.80;;;7.43;;
58637;SDS011;54976;51.510;7.522;2023-10-31T04:55:58;15.77;;;7.90;;
58637;SDS011;54976;51.510;7.522;2023-10-31T04:58:58;16.13;;;8.50;;
58637;SDS011;54976;51.510;7.522;2023-10-31T05:01:59;16.25;;;8.45;;
58637;SDS011;54976;51.510;7.522;2023-10-31T05:05:00;14.85;;;7.97;;
58637;SDS011;54976;51.510;7.522;2023-10-31T05:08:00;17.48;;;8.73;;
58637;SDS011;54976;51.510;7.522;2023-10-31T05:11:01;16.33;;;9.95;;
58637;SDS011;54976;51.510;7.522;2023-10-31T05:14:01;24.33;;;11.00;;
58637;SDS011;54976;51.510;7.522;2023-10-31T05:17:02;15.07;;;8.98;;
58637;SDS011;54976;51.510;7.522;2023-10-31T05:20:03;19.65;;;9.65;;
58637;SDS011;54976;51.510;7.522;2023-10-31T05:23:04;11.82;;;7.53;;
58637;SDS011;54976;51.510;7.522;2023-10-31T05:26:05;11.75;;;6.65;;
58637;SDS011;54976;51.510;7.522;2023-10-31T05:29:05;10.13;;;6.40;;
58637;SDS011;54976;51.510;7.522;2023-10-31T05:32:06;13.18;;;6.95;;
58637;SDS011;54976;51.510;7.522;2023-10-31T05:35:07;10.23;;;6.75;;
58637;SDS011;54976;51.510;7.522;2023-10-31T05:38:08;10.95;;;7.32;;
58637;SDS011;54976;51.510;7.522;2023-10-31T05:41:09;14.88;;;6.68;;
58637;SDS011;54976;51.510;7.522;2023-10-31T05:44:10;9.23;;;5.72;;
58637;SDS011;54976;51.510;7.522;2023-10-31T05:47:10;8.82;;;6.22;;
58637;SDS011;54976;51.510;7.522;2023-10-31T05:50:11;10.43;;;6.30;;
58637;SDS011;54976;51.510;7.522;2023-10-31T05:53:12;12.45;;;6.32;;
58637;SDS011;54976;51.510;7.522;2023-10-31T05:56:13;10.32;;;5.63;;
58637;SDS011;54976;51.510;7.522;2023-10-31T05:59:14;9.43;;;6.50;;
58637;SDS011;54976;51.510;7.522;2023-10-31T06:02:15;10.45;;;6.90;;
58637;SDS011;54976;51.510;7.522;2023-10-31T06:05:16;8.48;;;6.47;;
58637;SDS011;54976;51.510;7.522;2023-10-31T06:08:16;13.48;;;6.72;;
58637;SDS011;54976;51.510;7.522;2023-10-31T06:11:17;9.15;;;6.30;;
58637;SDS011;54976;51.510;7.522;2023-10-31T06:14:17;10.75;;;6.13;;
58637;SDS011;54976;51.510;7.522;2023-10-31T06:17:18;11.13;;;6.47;;
58637;SDS011;54976;51.510;7.522;2023-10-31T06:20:19;10.38;;;6.28;;
58637;SDS011;54976;51.510;7.522;2023-10-31T06:23:19;13.65;;;6.90;;
58637;SDS011;54976;51.510;7.522;2023-10-31T06:26:20;12.38;;;8.55;;
58637;SDS011;54976;51.510;7.522;2023-10-31T06:29:20;12.20;;;8.25;;
58637;SDS011;54976;51.510;7.522;2023-10-31T06:32:21;17.55;;;9.45;;
58637;SDS011;54976;51.510;7.522;2023-10-31T06:35:25;17.67;;;10.43;;
58637;SDS011;54976;51.510;7.522;2023-10-31T06:38:25;21.10;;;12.27;;
58637;SDS011;54976;51.510;7.522;2023-10-31T06:41:26;19.83;;;11.48;;
58637;SDS011;54976;51.510;7.522;2023-10-31T06:44:26;18.90;;;12.15;;
58637;SDS011;54976;51.510;7.522;2023-10-31T06:47:27;19.40;;;13.18;;
58637;SDS011;54976;51.510;7.522;2023-10-31T06:50:28;21.00;;;13.30;;
58637;SDS011;54976;51.510;7.522;2023-10-31T06:53:28;20.60;;;13.05;;
58637;SDS011;54976;51.510;7.522;2023-10-31T06:56:29;21.50;;;12.63;;
58637;SDS011;54976;51.510;7.522;2023-10-31T06:59:30;24.17;;;14.32;;
58637;SDS011;54976;51.510;7.522;2023-10-31T07:02:31;23.10;;;14.32;;
58637;SDS011;54976;51.510;7.522;2023-10-31T07:05:35;22.05;;;15.02;;
58637;SDS011;54976;51.510;7.522;2023-10-31T07:08:36;26.00;;;15.32;;
58637;SDS011;54976;51.510;7.522;2023-10-31T07:11:36;26.98;;;15.35;;
58637;SDS011;54976;51.510;7.522;2023-10-31T07:14:37;23.77;;;15.18;;
58637;SDS011;54976;51.510;7.522;2023-10-31T07:17:38;20.33;;;12.50;;
58637;SDS011;54976;51.510;7.522;2023-10-31T07:20:38;25.30;;;14.90;;
58637;SDS011;54976;51.510;7.522;2023-10-31T07:23:39;21.40;;;14.13;;
58637;SDS011;54976;51.510;7.522;2023-10-31T07:26:39;24.77;;;14.98;;
58637;SDS011;54976;51.510;7.522;2023-10-31T07:29:40;17.77;;;12.98;;
58637;SDS011;54976;51.510;7.522;2023-10-31T07:32:41;19.92;;;13.57;;
58637;SDS011;54976;51.510;7.522;2023-10-31T07:35:42;20.48;;;14.32;;
58637;SDS011;54976;51.510;7.522;2023-10-31T07:38:42;21.25;;;13.35;;
58637;SDS011;54976;51.510;7.522;2023-10-31T07:41:43;17.15;;;12.05;;
58637;SDS011;54976;51.510;7.522;2023-10-31T07:44:44;17.83;;;11.90;;
58637;SDS011;54976;51.510;7.522;2023-10-31T07:47:44;15.95;;;11.45;;
58637;SDS011;54976;51.510;7.522;2023-10-31T07:50:45;15.07;;;10.25;;
58637;SDS011;54976;51.510;7.522;2023-10-31T07:53:46;14.57;;;9.85;;
58637;SDS011;54976;51.510;7.522;2023-10-31T07:56:46;12.73;;;9.27;;
58637;SDS011;54976;51.510;7.522;2023-10-31T07:59:47;13.68;;;9.45;;
58637;SDS011;54976;51.510;7.522;2023-10-31T08:02:48;15.75;;;9.27;;
58637;SDS011;54976;51.510;7.522;2023-10-31T08:05:48;11.05;;;8.45;;
58637;SDS011;54976;51.510;7.522;2023-10-31T08:08:49;11.18;;;7.97;;
58637;SDS011;54976;51.510;7.522;2023-10-31T08:11:49;16.13;;;8.60;;
58637;SDS011;54976;51.510;7.522;2023-10-31T08:14:50;10.50;;;8.48;;
58637;SDS011;54976;51.510;7.522;2023-10-31T08:17:51;12.75;;;8.75;;
58637;SDS011;54976;51.510;7.522;2023-10-31T08:20:51;11.68;;;8.00;;
58637;SDS011;54976;51.510;7.522;2023-10-31T08:23:52;10.05;;;6.95;;
58637;SDS011;54976;51.510;7.522;2023-10-31T08:26:53;9.52;;;7.55;;
58637;SDS011;54976;51.510;7.522;2023-10-31T08:29:53;10.73;;;7.85;;
58637;SDS011;54976;51.510;7.522;2023-10-31T08:32:54;10.18;;;7.85;;
58637;SDS011;54976;51.510;7.522;2023-10-31T08:35:54;10.57;;;8.48;;
58637;SDS011;54976;51.510;7.522;2023-10-31T08:38:55;8.68;;;7.68;;
58637;SDS011;54976;51.510;7.522;2023-10-31T08:41:56;9.90;;;8.13;;
58637;SDS011;54976;51.510;7.522;2023-10-31T08:44:57;9.15;;;7.40;;
58637;SDS011;54976;51.510;7.522;2023-10-31T08:47:58;8.82;;;7.45;;
58637;SDS011;54976;51.510;7.522;2023-10-31T08:50:59;10.32;;;8.82;;
58637;SDS011;54976;51.510;7.522;2023-10-31T08:54:00;11.43;;;7.45;;
58637;SDS011;54976;51.510;7.522;2023-10-31T08:57:00;11.38;;;8.23;;
58637;SDS011;54976;51.510;7.522;2023-10-31T09:00:01;14.35;;;7.72;;
58637;SDS011;54976;51.510;7.522;2023-10-31T09:03:04;10.38;;;8.45;;
58637;SDS011;54976;51.510;7.522;2023-10-31T09:06:05;10.25;;;7.22;;
58637;SDS011;54976;51.510;7.522;2023-10-31T09:09:06;9.65;;;6.75;;
58637;SDS011;54976;51.510;7.522;2023-10-31T09:12:06;12.82;;;6.72;;
58637;SDS011;54976;51.510;7.522;2023-10-31T09:15:07;6.70;;;5.82;;
58637;SDS011;54976;51.510;7.522;2023-10-31T09:18:09;8.85;;;6.65;;
58637;SDS011;54976;51.510;7.522;2023-10-31T09:21:10;12.10;;;6.90;;
58637;SDS011;54976;51.510;7.522;2023-10-31T09:24:10;7.53;;;6.55;;
58637;SDS011;54976;51.510;7.522;2023-10-31T09:27:11;7.20;;;6.47;;
58637;SDS011;54976;51.510;7.522;2023-10-31T09:30:12;6.18;;;5.50;;
58637;SDS011;54976;51.510;7.522;2023-10-31T09:33:12;7.18;;;5.85;;
58637;SDS011;54976;51.510;7.522;2023-10-31T09:36:13;9.13;;;5.90;;
58637;SDS011;54976;51.510;7.522;2023-10-31T09:39:14;6.53;;;5.53;;
58637;SDS011;54976;51.510;7.522;2023-10-31T09:42:15;7.78;;;5.63;;
58637;SDS011;54976;51.510;7.522;2023-10-31T09:45:16;8.30;;;5.70;;
58637;SDS011;54976;51.510;7.522;2023-10-31T09:48:17;6.53;;;5.32;;
58637;SDS011;54976;51.510;7.522;2023-10-31T09:51:19;6.75;;;5.63;;
58637;SDS011;54976;51.510;7.522;2023-10-31T09:54:21;7.80;;;5.40;;
58637;SDS011;54976;51.510;7.522;2023-10-31T09:57:23;7.70;;;4.93;;
58637;SDS011;54976;51.510;7.522;2023-10-31T10:00:26;6.80;;;5.10;;
58637;SDS011;54976;51.510;7.522;2023-10-31T10:03:27;5.20;;;4.65;;
58637;SDS011;54976;51.510;7.522;2023-10-31T10:06:27;8.80;;;5.13;;
58637;SDS011;54976;51.510;7.522;2023-10-31T10:09:29;6.97;;;4.88;;
58637;SDS011;54976;51.510;7.522;2023-10-31T10:12:31;8.20;;;4.85;;
58637;SDS011;54976;51.510;7.522;2023-10-31T10:15:42;6.25;;;4.93;;
58637;SDS011;54976;51.510;7.522;2023-10-31T10:18:49;6.15;;;4.45;;
58637;SDS011;54976;51.510;7.522;2023-10-31T10:21:56;9.18;;;4.22;;
58637;SDS011;54976;51.510;7.522;2023-10-31T10:24:58;9.85;;;4.88;;
58637;SDS011;54976;51.510;7.522;2023-10-31T10:27:58;8.60;;;4.40;;
58637;SDS011;54976;51.510;7.522;2023-10-31T10:30:59;6.75;;;4.30;;
58637;SDS011;54976;51.510;7.522;2023-10-31T10:34:00;19.35;;;4.78;;
58637;SDS011;54976;51.510;7.522;2023-10-31T10:37:01;11.43;;;4.50;;
58637;SDS011;54976;51.510;7.522;2023-10-31T10:40:06;4.82;;;3.33;;
58637;SDS011;54976;51.510;7.522;2023-10-31T10:43:12;6.22;;;3.58;;
58637;SDS011;54976;51.510;7.522;2023-10-31T10:46:14;10.52;;;4.30;;
58637;SDS011;54976;51.510;7.522;2023-10-31T10:49:17;6.18;;;3.70;;
58637;SDS011;54976;51.510;7.522;2023-10-31T10:52:27;9.15;;;3.90;;
58637;SDS011;54976;51.510;7.522;2023-10-31T10:55:32;8.82;;;4.30;;
58637;SDS011;54976;51.510;7.522;2023-10-31T11:01:56;9.27;;;4.00;;
58637;SDS011;54976;51.510;7.522;2023-10-31T11:05:00;7.43;;;4.25;;
58637;SDS011;54976;51.510;7.522;2023-10-31T11:08:02;6.25;;;3.95;;
58637;SDS011;54976;51.510;7.522;2023-10-31T11:11:04;7.60;;;4.32;;
58637;SDS011;54976;51.510;7.522;2023-10-31T11:14:05;7.72;;;4.38;;
58637;SDS011;54976;51.510;7.522;2023-10-31T11:17:06;10.57;;;4.60;;
58637;SDS011;54976;51.510;7.522;2023-10-31T11:20:19;9.98;;;4.60;;
58637;SDS011;54976;51.510;7.522;2023-10-31T11:23:20;10.05;;;4.55;;
58637;SDS011;54976;51.510;7.522;2023-10-31T11:26:21;15.85;;;4.45;;
58637;SDS011;54976;51.510;7.522;2023-10-31T11:29:25;9.10;;;4.85;;
58637;SDS011;54976;51.510;7.522;2023-10-31T11:32:26;6.10;;;4.38;;
58637;SDS011;54976;51.510;7.522;2023-10-31T11:35:29;9.00;;;4.50;;
58637;SDS011;54976;51.510;7.522;2023-10-31T11:38:31;5.60;;;4.13;;
58637;SDS011;54976;51.510;7.522;2023-10-31T11:41:34;12.02;;;4.65;;
58637;SDS011;54976;51.510;7.522;2023-10-31T11:44:35;7.75;;;4.38;;
58637;SDS011;54976;51.510;7.522;2023-10-31T11:47:55;6.30;;;4.20;;
58637;SDS011;54976;51.510;7.522;2023-10-31T11:50:56;6.68;;;4.28;;
58637;SDS011;54976;51.510;7.522;2023-10-31T11:53:58;10.00;;;4.82;;
58637;SDS011;54976;51.510;7.522;2023-10-31T11:57:01;8.63;;;4.32;;
58637;SDS011;54976;51.510;7.522;2023-10-31T12:00:05;9.05;;;4.20;;
58637;SDS011;54976;51.510;7.522;2023-10-31T12:03:10;19.80;;;3.95;;
58637;SDS011;54976;51.510;7.522;2023-10-31T12:06:10;8.07;;;3.10;;
58637;SDS011;54976;51.510;7.522;2023-10-31T12:09:11;12.30;;;3.38;;
58637;SDS011;54976;51.510;7.522;2023-10-31T12:12:12;7.03;;;2.83;;
58637;SDS011;54976;51.510;7.522;2023-10-31T12:15:12;25.13;;;3.55;;
58637;SDS011;54976;51.510;7.522;2023-10-31T12:18:13;10.48;;;2.72;;
58637;SDS011;54976;51.510;7.522;2023-10-31T12:21:14;8.75;;;2.20;;
58637;SDS011;54976;51.510;7.522;2023-10-31T12:24:15;6.22;;;2.72;;
58637;SDS011;54976;51.510;7.522;2023-10-31T12:27:17;6.50;;;2.03;;
58637;SDS011;54976;51.510;7.522;2023-10-31T12:30:20;7.80;;;2.80;;
58637;SDS011;54976;51.510;7.522;2023-10-31T12:33:21;6.70;;;2.53;;
58637;SDS011;54976;51.510;7.522;2023-10-31T12:36:24;5.60;;;2.25;;
58637;SDS011;54976;51.510;7.522;2023-10-31T12:39:25;7.88;;;2.15;;
58637;SDS011;54976;51.510;7.522;2023-10-31T12:42:27;5.38;;;1.90;;
58637;SDS011;54976;51.510;7.522;2023-10-31T12:45:30;14.23;;;2.28;;
58637;SDS011;54976;51.510;7.522;2023-10-31T12:48:31;6.68;;;1.98;;
58637;SDS011;54976;51.510;7.522;2023-10-31T12:51:32;7.70;;;2.10;;
58637;SDS011;54976;51.510;7.522;2023-10-31T12:54:34;5.85;;;1.95;;
58637;SDS011;54976;51.510;7.522;2023-10-31T12:57:36;8.40;;;1.67;;
58637;SDS011;54976;51.510;7.522;2023-10-31T13:00:37;6.65;;;1.52;;
58637;SDS011;54976;51.510;7.522;2023-10-31T13:03:48;8.68;;;1.52;;
58637;SDS011;54976;51.510;7.522;2023-10-31T13:09:59;5.90;;;1.60;;
58637;SDS011;54976;51.510;7.522;2023-10-31T13:13:00;7.38;;;1.33;;
58637;SDS011;54976;51.510;7.522;2023-10-31T13:16:01;6.53;;;1.30;;
58637;SDS011;54976;51.510;7.522;2023-10-31T13:19:01;9.18;;;1.70;;
58637;SDS011;54976;51.510;7.522;2023-10-31T13:22:02;3.08;;;1.23;;
58637;SDS011;54976;51.510;7.522;2023-10-31T13:25:05;6.03;;;1.20;;
58637;SDS011;54976;51.510;7.522;2023-10-31T13:28:10;9.10;;;1.58;;
58637;SDS011;54976;51.510;7.522;2023-10-31T13:31:12;7.28;;;1.20;;
58637;SDS011;54976;51.510;7.522;2023-10-31T13:34:15;8.70;;;1.15;;
58637;SDS011;54976;51.510;7.522;2023-10-31T13:37:15;7.50;;;1.65;;
58637;SDS011;54976;51.510;7.522;2023-10-31T13:40:16;4.70;;;1.10;;
58637;SDS011;54976;51.510;7.522;2023-10-31T13:43:17;5.45;;;1.30;;
58637;SDS011;54976;51.510;7.522;2023-10-31T13:46:17;8.82;;;1.33;;
58637;SDS011;54976;51.510;7.522;2023-10-31T13:49:18;7.85;;;1.30;;
58637;SDS011;54976;51.510;7.522;2023-10-31T13:52:18;9.10;;;1.60;;
58637;SDS011;54976;51.510;7.522;2023-10-31T13:55:19;4.97;;;1.30;;
58637;SDS011;54976;51.510;7.522;2023-10-31T13:58:20;4.60;;;1.17;;
58637;SDS011;54976;51.510;7.522;2023-10-31T14:01:20;5.35;;;1.15;;
58637;SDS011;54976;51.510;7.522;2023-10-31T14:04:24;2.07;;;1.27;;
58637;SDS011;54976;51.510;7.522;2023-10-31T14:07:25;4.95;;;1.50;;
58637;SDS011;54976;51.510;7.522;2023-10-31T14:10:25;3.60;;;1.13;;
58637;SDS011;54976;51.510;7.522;2023-10-31T14:13:26;7.90;;;1.77;;
58637;SDS011;54976;51.510;7.522;2023-10-31T14:16:27;4.55;;;1.17;;
58637;SDS011;54976;51.510;7.522;2023-10-31T14:19:27;4.97;;;1.27;;
58637;SDS011;54976;51.510;7.522;2023-10-31T14:22:28;4.18;;;1.42;;
58637;SDS011;54976;51.510;7.522;2023-10-31T14:25:28;3.75;;;1.17;;
58637;SDS011;54976;51.510;7.522;2023-10-31T14:28:29;3.58;;;1.15;;
58637;SDS011;54976;51.510;7.522;2023-10-31T14:31:29;3.17;;;1.45;;
58637;SDS011;54976;51.510;7.522;2023-10-31T14:34:30;4.38;;;1.02;;
58637;SDS011;54976;51.510;7.522;2023-10-31T14:37:31;1.77;;;1.20;;
58637;SDS011;54976;51.510;7.522;2023-10-31T14:40:31;7.10;;;1.10;;
58637;SDS011;54976;51.510;7.522;2023-10-31T14:43:32;4.28;;;1.33;;
58637;SDS011;54976;51.510;7.522;2023-10-31T14:46:33;1.60;;;0.90;;
58637;SDS011;54976;51.510;7.522;2023-10-31T14:49:34;5.65;;;1.40;;
58637;SDS011;54976;51.510;7.522;2023-10-31T14:52:35;2.50;;;1.30;;
58637;SDS011;54976;51.510;7.522;2023-10-31T14:55:35;4.75;;;1.33;;
58637;SDS011;54976;51.510;7.522;2023-10-31T14:58:36;1.42;;;1.20;;
58637;SDS011;54976;51.510;7.522;2023-10-31T15:01:36;4.20;;;1.00;;
58637;SDS011;54976;51.510;7.522;2023-10-31T15:04:37;2.90;;;1.20;;
58637;SDS011;54976;51.510;7.522;2023-10-31T15:07:38;3.72;;;1.42;;
58637;SDS011;54976;51.510;7.522;2023-10-31T15:10:40;6.20;;;1.23;;
58637;SDS011;54976;51.510;7.522;2023-10-31T15:13:41;3.17;;;1.40;;
58637;SDS011;54976;51.510;7.522;2023-10-31T15:16:41;5.40;;;1.58;;
58637;SDS011;54976;51.510;7.522;2023-10-31T15:19:42;5.15;;;1.42;;
58637;SDS011;54976;51.510;7.522;2023-10-31T15:22:43;6.40;;;1.25;;
58637;SDS011;54976;51.510;7.522;2023-10-31T15:25:43;7.55;;;1.50;;
58637;SDS011;54976;51.510;7.522;2023-10-31T15:28:44;4.70;;;1.38;;
58637;SDS011;54976;51.510;7.522;2023-10-31T15:31:45;4.00;;;1.55;;
58637;SDS011;54976;51.510;7.522;2023-10-31T15:34:47;7.15;;;1.80;;
58637;SDS011;54976;51.510;7.522;2023-10-31T15:37:48;6.20;;;1.50;;
58637;SDS011;54976;51.510;7.522;2023-10-31T15:40:48;5.40;;;1.85;;
58637;SDS011;54976;51.510;7.522;2023-10-31T15:43:49;4.50;;;1.65;;
58637;SDS011;54976;51.510;7.522;2023-10-31T15:46:50;4.22;;;1.58;;
58637;SDS011;54976;51.510;7.522;2023-10-31T15:49:50;4.78;;;1.60;;
58637;SDS011;54976;51.510;7.522;2023-10-31T15:52:51;3.78;;;1.60;;
58637;SDS011;54976;51.510;7.522;2023-10-31T15:55:52;5.75;;;2.20;;
58637;SDS011;54976;51.510;7.522;2023-10-31T15:58:52;9.15;;;2.90;;
58637;SDS011;54976;51.510;7.522;2023-10-31T16:01:53;3.53;;;2.15;;
58637;SDS011;54976;51.510;7.522;2023-10-31T16:04:54;3.95;;;2.10;;
58637;SDS011;54976;51.510;7.522;2023-10-31T16:07:56;6.05;;;2.88;;
58637;SDS011;54976;51.510;7.522;2023-10-31T16:10:56;6.35;;;1.98;;
58637;SDS011;54976;51.510;7.522;2023-10-31T16:13:57;12.30;;;2.55;;
58637;SDS011;54976;51.510;7.522;2023-10-31T16:16:58;7.68;;;2.00;;
58637;SDS011;54976;51.510;7.522;2023-10-31T16:19:59;4.28;;;2.05;;
58637;SDS011;54976;51.510;7.522;2023-10-31T16:23:00;5.28;;;2.17;;
58637;SDS011;54976;51.510;7.522;2023-10-31T16:26:00;7.82;;;2.75;;
58637;SDS011;54976;51.510;7.522;2023-10-31T16:29:01;8.55;;;3.08;;
58637;SDS011;54976;51.510;7.522;2023-10-31T16:32:02;16.95;;;4.00;;
58637;SDS011;54976;51.510;7.522;2023-10-31T16:35:03;8.38;;;4.20;;
58637;SDS011;54976;51.510;7.522;2023-10-31T16:38:05;4.20;;;3.10;;
58637;SDS011;54976;51.510;7.522;2023-10-31T16:41:05;5.00;;;3.00;;
58637;SDS011;54976;51.510;7.522;2023-10-31T16:44:07;5.00;;;2.60;;
58637;SDS011;54976;51.510;7.522;2023-10-31T16:47:08;9.52;;;2.63;;
58637;SDS011;54976;51.510;7.522;2023-10-31T16:50:08;8.60;;;2.80;;
58637;SDS011;54976;51.510;7.522;2023-10-31T16:53:09;11.82;;;3.60;;
58637;SDS011;54976;51.510;7.522;2023-10-31T16:56:10;7.65;;;4.25;;
58637;SDS011;54976;51.510;7.522;2023-10-31T16:59:11;11.75;;;4.65;;
58637;SDS011;54976;51.510;7.522;2023-10-31T17:02:12;6.45;;;3.00;;
58637;SDS011;54976;51.510;7.522;2023-10-31T17:05:13;11.98;;;3.58;;
58637;SDS011;54976;51.510;7.522;2023-10-31T17:08:14;9.15;;;3.40;;
58637;SDS011;54976;51.510;7.522;2023-10-31T17:11:15;9.68;;;4.72;;
58637;SDS011;54976;51.510;7.522;2023-10-31T17:14:16;8.30;;;4.43;;
58637;SDS011;54976;51.510;7.522;2023-10-31T17:17:16;10.40;;;5.85;;
58637;SDS011;54976;51.510;7.522;2023-10-31T17:20:17;12.73;;;5.80;;
58637;SDS011;54976;51.510;7.522;2023-10-31T17:23:17;7.25;;;3.85;;
58637;SDS011;54976;51.510;7.522;2023-10-31T17:26:18;7.40;;;3.72;;
58637;SDS011;54976;51.510;7.522;2023-10-31T17:29:18;7.63;;;3.40;;
58637;SDS011;54976;51.510;7.522;2023-10-31T17:32:19;6.22;;;3.08;;
58637;SDS011;54976;51.510;7.522;2023-10-31T17:35:19;8.65;;;3.00;;
58637;SDS011;54976;51.510;7.522;2023-10-31T17:38:20;7.25;;;3.40;;
58637;SDS011;54976;51.510;7.522;2023-10-31T17:41:22;9.90;;;3.10;;
58637;SDS011;54976;51.510;7.522;2023-10-31T17:44:22;9.70;;;3.22;;
58637;SDS011;54976;51.510;7.522;2023-10-31T17:47:24;17.98;;;4.03;;
58637;SDS011;54976;51.510;7.522;2023-10-31T17:50:25;7.55;;;2.78;;
58637;SDS011;54976;51.510;7.522;2023-10-31T17:56:30;10.40;;;2.88;;
58637;SDS011;54976;51.510;7.522;2023-10-31T17:59:31;10.82;;;3.20;;
58637;SDS011;54976;51.510;7.522;2023-10-31T18:02:32;12.07;;;3.30;;
58637;SDS011;54976;51.510;7.522;2023-10-31T18:05:32;7.93;;;3.97;;
58637;SDS011;54976;51.510;7.522;2023-10-31T18:08:33;6.57;;;3.13;;
58637;SDS011;54976;51.510;7.522;2023-10-31T18:11:34;13.27;;;4.03;;
58637;SDS011;54976;51.510;7.522;2023-10-31T18:14:34;10.45;;;3.58;;